sensor_id;sensor_type;location;lat;lon;timestamp;P1;durP1;ratioP1;P2;durP2;ratioP2
13847;SDS011;6994;49.752;6.094;2022-12-18T00:01:59;40.83;;;23.17;;
13847;SDS011;6994;49.752;6.094;2022-12-18T00:04:26;31.67;;;16.40;;
13847;SDS011;6994;49.752;6.094;2022-12-18T00:06:53;32.55;;;16.37;;
13847;SDS011;6994;49.752;6.094;2022-12-18T00:09:21;32.58;;;13.90;;
13847;SDS011;6994;49.752;6.094;2022-12-18T00:11:49;29.35;;;12.95;;
13847;SDS011;6994;49.752;6.094;2022-12-18T00:14:16;27.92;;;13.30;;
13847;SDS011;6994;49.752;6.094;2022-12-18T00:16:44;32.78;;;14.50;;
13847;SDS011;6994;49.752;6.094;2022-12-18T00:19:10;41.60;;;23.33;;
13847;SDS011;6994;49.752;6.094;2022-12-18T00:21:41;31.77;;;17.20;;
13847;SDS011;6994;49.752;6.094;2022-12-18T00:24:09;38.45;;;18.75;;
13847;SDS011;6994;49.752;6.094;2022-12-18T00:26:37;39.33;;;17.05;;
13847;SDS011;6994;49.752;6.094;2022-12-18T00:29:09;27.65;;;14.05;;
13847;SDS011;6994;49.752;6.094;2022-12-18T00:31:31;28.42;;;13.98;;
13847;SDS011;6994;49.752;6.094;2022-12-18T00:33:58;44.73;;;24.57;;
13847;SDS011;6994;49.752;6.094;2022-12-18T00:36:27;31.52;;;17.10;;
13847;SDS011;6994;49.752;6.094;2022-12-18T00:38:54;30.33;;;14.20;;
13847;SDS011;6994;49.752;6.094;2022-12-18T00:41:22;32.65;;;15.15;;
13847;SDS011;6994;49.752;6.094;2022-12-18T00:44:09;36.00;;;15.02;;
13847;SDS011;6994;49.752;6.094;2022-12-18T00:46:35;29.58;;;15.05;;
13847;SDS011;6994;49.752;6.094;2022-12-18T00:49:02;28.75;;;14.32;;
13847;SDS011;6994;49.752;6.094;2022-12-18T00:51:29;40.90;;;23.63;;
13847;SDS011;6994;49.752;6.094;2022-12-18T00:53:58;29.75;;;16.65;;
13847;SDS011;6994;49.752;6.094;2022-12-18T00:56:25;33.22;;;17.23;;
13847;SDS011;6994;49.752;6.094;2022-12-18T00:58:53;29.23;;;14.65;;
13847;SDS011;6994;49.752;6.094;2022-12-18T01:01:21;37.57;;;16.10;;
13847;SDS011;6994;49.752;6.094;2022-12-18T01:03:48;33.13;;;14.68;;
13847;SDS011;6994;49.752;6.094;2022-12-18T01:06:15;40.17;;;21.47;;
13847;SDS011;6994;49.752;6.094;2022-12-18T01:08:43;35.78;;;17.02;;
13847;SDS011;6994;49.752;6.094;2022-12-18T01:11:12;29.42;;;12.93;;
13847;SDS011;6994;49.752;6.094;2022-12-18T01:13:41;31.27;;;14.20;;
13847;SDS011;6994;49.752;6.094;2022-12-18T01:16:11;28.05;;;14.45;;
13847;SDS011;6994;49.752;6.094;2022-12-18T01:18:37;31.20;;;15.27;;
13847;SDS011;6994;49.752;6.094;2022-12-18T01:21:06;28.25;;;14.23;;
13847;SDS011;6994;49.752;6.094;2022-12-18T01:23:32;29.33;;;13.62;;
13847;SDS011;6994;49.752;6.094;2022-12-18T01:26:03;25.27;;;14.02;;
13847;SDS011;6994;49.752;6.094;2022-12-18T01:28:36;29.42;;;13.75;;
13847;SDS011;6994;49.752;6.094;2022-12-18T01:31:16;27.33;;;13.63;;
13847;SDS011;6994;49.752;6.094;2022-12-18T01:33:49;26.27;;;13.13;;
13847;SDS011;6994;49.752;6.094;2022-12-18T01:36:17;29.10;;;13.43;;
13847;SDS011;6994;49.752;6.094;2022-12-18T01:38:44;22.73;;;11.60;;
13847;SDS011;6994;49.752;6.094;2022-12-18T01:41:11;26.62;;;14.38;;
13847;SDS011;6994;49.752;6.094;2022-12-18T01:43:43;24.20;;;11.45;;
13847;SDS011;6994;49.752;6.094;2022-12-18T01:46:09;37.67;;;21.83;;
13847;SDS011;6994;49.752;6.094;2022-12-18T01:48:37;30.57;;;15.43;;
13847;SDS011;6994;49.752;6.094;2022-12-18T01:51:06;27.52;;;13.85;;
13847;SDS011;6994;49.752;6.094;2022-12-18T01:53:33;31.00;;;13.57;;
13847;SDS011;6994;49.752;6.094;2022-12-18T01:56:00;27.30;;;13.30;;
13847;SDS011;6994;49.752;6.094;2022-12-18T01:58:33;33.23;;;19.93;;
13847;SDS011;6994;49.752;6.094;2022-12-18T02:01:07;24.83;;;13.10;;
13847;SDS011;6994;49.752;6.094;2022-12-18T02:03:34;16.50;;;10.65;;
13847;SDS011;6994;49.752;6.094;2022-12-18T02:06:06;24.60;;;12.00;;
13847;SDS011;6994;49.752;6.094;2022-12-18T02:13:52;21.85;;;11.23;;
13847;SDS011;6994;49.752;6.094;2022-12-18T02:16:24;23.38;;;11.85;;
13847;SDS011;6994;49.752;6.094;2022-12-18T02:18:57;22.90;;;11.25;;
13847;SDS011;6994;49.752;6.094;2022-12-18T02:21:29;35.22;;;19.87;;
13847;SDS011;6994;49.752;6.094;2022-12-18T02:26:51;35.88;;;21.17;;
13847;SDS011;6994;49.752;6.094;2022-12-18T02:29:21;29.17;;;15.32;;
13847;SDS011;6994;49.752;6.094;2022-12-18T02:31:50;19.75;;;11.57;;
13847;SDS011;6994;49.752;6.094;2022-12-18T02:34:17;22.13;;;11.47;;
13847;SDS011;6994;49.752;6.094;2022-12-18T02:36:44;26.00;;;13.00;;
13847;SDS011;6994;49.752;6.094;2022-12-18T02:39:12;20.00;;;10.03;;
13847;SDS011;6994;49.752;6.094;2022-12-18T02:41:40;23.08;;;11.32;;
13847;SDS011;6994;49.752;6.094;2022-12-18T02:44:11;22.50;;;11.13;;
13847;SDS011;6994;49.752;6.094;2022-12-18T02:46:40;19.20;;;9.98;;
13847;SDS011;6994;49.752;6.094;2022-12-18T02:49:08;26.05;;;12.63;;
13847;SDS011;6994;49.752;6.094;2022-12-18T02:51:50;25.60;;;10.90;;
13847;SDS011;6994;49.752;6.094;2022-12-18T02:54:21;35.22;;;19.90;;
13847;SDS011;6994;49.752;6.094;2022-12-18T02:56:47;33.17;;;15.23;;
13847;SDS011;6994;49.752;6.094;2022-12-18T02:59:17;28.50;;;13.90;;
13847;SDS011;6994;49.752;6.094;2022-12-18T03:01:49;24.17;;;11.50;;
13847;SDS011;6994;49.752;6.094;2022-12-18T03:04:14;31.33;;;13.27;;
13847;SDS011;6994;49.752;6.094;2022-12-18T03:06:41;21.02;;;11.30;;
13847;SDS011;6994;49.752;6.094;2022-12-18T03:09:09;25.83;;;11.53;;
13847;SDS011;6994;49.752;6.094;2022-12-18T03:11:37;21.02;;;11.05;;
13847;SDS011;6994;49.752;6.094;2022-12-18T03:14:21;20.62;;;10.77;;
13847;SDS011;6994;49.752;6.094;2022-12-18T03:16:49;21.10;;;11.25;;
13847;SDS011;6994;49.752;6.094;2022-12-18T03:19:16;22.50;;;12.30;;
13847;SDS011;6994;49.752;6.094;2022-12-18T03:21:44;19.42;;;10.77;;
13847;SDS011;6994;49.752;6.094;2022-12-18T03:24:11;21.02;;;10.90;;
13847;SDS011;6994;49.752;6.094;2022-12-18T03:26:40;20.97;;;10.33;;
13847;SDS011;6994;49.752;6.094;2022-12-18T03:29:30;21.23;;;11.27;;
13847;SDS011;6994;49.752;6.094;2022-12-18T03:31:49;23.45;;;11.10;;
13847;SDS011;6994;49.752;6.094;2022-12-18T03:34:24;25.87;;;11.00;;
13847;SDS011;6994;49.752;6.094;2022-12-18T03:36:48;24.17;;;11.10;;
13847;SDS011;6994;49.752;6.094;2022-12-18T03:39:16;35.33;;;19.43;;
13847;SDS011;6994;49.752;6.094;2022-12-18T03:41:45;24.50;;;14.13;;
13847;SDS011;6994;49.752;6.094;2022-12-18T03:44:31;24.02;;;11.23;;
13847;SDS011;6994;49.752;6.094;2022-12-18T03:47:07;23.35;;;12.23;;
13847;SDS011;6994;49.752;6.094;2022-12-18T03:49:44;16.70;;;9.73;;
13847;SDS011;6994;49.752;6.094;2022-12-18T03:52:09;33.30;;;19.27;;
13847;SDS011;6994;49.752;6.094;2022-12-18T03:54:37;26.10;;;13.93;;
13847;SDS011;6994;49.752;6.094;2022-12-18T03:57:09;26.35;;;12.40;;
13847;SDS011;6994;49.752;6.094;2022-12-18T03:59:34;21.70;;;11.90;;
13847;SDS011;6994;49.752;6.094;2022-12-18T04:02:02;22.67;;;10.55;;
13847;SDS011;6994;49.752;6.094;2022-12-18T04:04:30;17.48;;;10.45;;
13847;SDS011;6994;49.752;6.094;2022-12-18T04:06:58;32.35;;;17.73;;
13847;SDS011;6994;49.752;6.094;2022-12-18T04:09:25;25.02;;;12.30;;
13847;SDS011;6994;49.752;6.094;2022-12-18T04:11:52;26.65;;;11.57;;
13847;SDS011;6994;49.752;6.094;2022-12-18T04:14:19;34.43;;;17.77;;
13847;SDS011;6994;49.752;6.094;2022-12-18T04:16:47;26.30;;;14.95;;
13847;SDS011;6994;49.752;6.094;2022-12-18T04:19:15;23.25;;;12.57;;
13847;SDS011;6994;49.752;6.094;2022-12-18T04:21:43;19.17;;;10.00;;
13847;SDS011;6994;49.752;6.094;2022-12-18T04:24:10;24.30;;;10.90;;
13847;SDS011;6994;49.752;6.094;2022-12-18T04:26:38;19.43;;;10.87;;
13847;SDS011;6994;49.752;6.094;2022-12-18T04:29:05;31.23;;;17.07;;
13847;SDS011;6994;49.752;6.094;2022-12-18T04:31:33;23.25;;;13.60;;
13847;SDS011;6994;49.752;6.094;2022-12-18T04:34:01;21.25;;;11.40;;
13847;SDS011;6994;49.752;6.094;2022-12-18T04:36:28;16.83;;;9.52;;
13847;SDS011;6994;49.752;6.094;2022-12-18T04:38:55;18.75;;;11.77;;
13847;SDS011;6994;49.752;6.094;2022-12-18T04:41:22;21.63;;;11.37;;
13847;SDS011;6994;49.752;6.094;2022-12-18T04:43:50;22.77;;;11.05;;
13847;SDS011;6994;49.752;6.094;2022-12-18T04:46:17;18.10;;;10.82;;
13847;SDS011;6994;49.752;6.094;2022-12-18T04:48:45;19.30;;;9.98;;
13847;SDS011;6994;49.752;6.094;2022-12-18T04:51:11;25.17;;;12.07;;
13847;SDS011;6994;49.752;6.094;2022-12-18T04:53:39;19.93;;;10.47;;
13847;SDS011;6994;49.752;6.094;2022-12-18T04:56:08;19.57;;;11.10;;
13847;SDS011;6994;49.752;6.094;2022-12-18T04:58:35;23.70;;;11.23;;
13847;SDS011;6994;49.752;6.094;2022-12-18T05:01:02;27.47;;;12.53;;
13847;SDS011;6994;49.752;6.094;2022-12-18T05:03:29;24.43;;;10.53;;
13847;SDS011;6994;49.752;6.094;2022-12-18T05:05:56;21.77;;;10.13;;
13847;SDS011;6994;49.752;6.094;2022-12-18T05:08:24;23.12;;;11.98;;
13847;SDS011;6994;49.752;6.094;2022-12-18T05:11:00;19.00;;;10.82;;
13847;SDS011;6994;49.752;6.094;2022-12-18T05:13:36;24.23;;;9.60;;
13847;SDS011;6994;49.752;6.094;2022-12-18T05:16:04;30.37;;;11.70;;
13847;SDS011;6994;49.752;6.094;2022-12-18T05:18:31;20.12;;;10.95;;
13847;SDS011;6994;49.752;6.094;2022-12-18T05:20:58;15.90;;;10.20;;
13847;SDS011;6994;49.752;6.094;2022-12-18T05:23:25;19.87;;;9.95;;
13847;SDS011;6994;49.752;6.094;2022-12-18T05:25:59;21.43;;;10.27;;
13847;SDS011;6994;49.752;6.094;2022-12-18T05:28:26;19.33;;;9.53;;
13847;SDS011;6994;49.752;6.094;2022-12-18T05:30:55;18.60;;;10.53;;
13847;SDS011;6994;49.752;6.094;2022-12-18T05:33:22;20.93;;;10.50;;
13847;SDS011;6994;49.752;6.094;2022-12-18T05:35:55;22.33;;;10.73;;
13847;SDS011;6994;49.752;6.094;2022-12-18T05:38:22;18.93;;;9.87;;
13847;SDS011;6994;49.752;6.094;2022-12-18T05:40:50;17.77;;;9.13;;
13847;SDS011;6994;49.752;6.094;2022-12-18T05:43:17;20.92;;;11.10;;
13847;SDS011;6994;49.752;6.094;2022-12-18T05:45:44;22.37;;;9.63;;
13847;SDS011;6994;49.752;6.094;2022-12-18T05:48:11;16.70;;;9.18;;
13847;SDS011;6994;49.752;6.094;2022-12-18T05:50:40;28.60;;;9.88;;
13847;SDS011;6994;49.752;6.094;2022-12-18T05:53:07;17.97;;;9.17;;
13847;SDS011;6994;49.752;6.094;2022-12-18T05:55:34;19.47;;;10.30;;
13847;SDS011;6994;49.752;6.094;2022-12-18T05:58:01;20.07;;;10.37;;
13847;SDS011;6994;49.752;6.094;2022-12-18T06:00:30;19.65;;;10.15;;
13847;SDS011;6994;49.752;6.094;2022-12-18T06:02:56;19.67;;;10.87;;
13847;SDS011;6994;49.752;6.094;2022-12-18T06:05:23;17.77;;;9.93;;
13847;SDS011;6994;49.752;6.094;2022-12-18T06:07:51;29.37;;;17.10;;
13847;SDS011;6994;49.752;6.094;2022-12-18T06:10:19;21.70;;;10.80;;
13847;SDS011;6994;49.752;6.094;2022-12-18T06:12:47;21.67;;;11.93;;
13847;SDS011;6994;49.752;6.094;2022-12-18T06:15:14;18.52;;;10.35;;
13847;SDS011;6994;49.752;6.094;2022-12-18T06:17:41;17.17;;;9.70;;
13847;SDS011;6994;49.752;6.094;2022-12-18T06:20:08;15.30;;;9.18;;
13847;SDS011;6994;49.752;6.094;2022-12-18T06:22:36;17.05;;;8.93;;
13847;SDS011;6994;49.752;6.094;2022-12-18T06:25:03;15.95;;;9.48;;
13847;SDS011;6994;49.752;6.094;2022-12-18T06:27:30;26.37;;;16.00;;
13847;SDS011;6994;49.752;6.094;2022-12-18T06:29:57;18.48;;;10.05;;
13847;SDS011;6994;49.752;6.094;2022-12-18T06:32:24;18.25;;;9.68;;
13847;SDS011;6994;49.752;6.094;2022-12-18T06:34:52;17.80;;;8.07;;
13847;SDS011;6994;49.752;6.094;2022-12-18T06:37:20;17.90;;;8.30;;
13847;SDS011;6994;49.752;6.094;2022-12-18T06:39:47;20.77;;;8.77;;
13847;SDS011;6994;49.752;6.094;2022-12-18T06:42:14;19.67;;;8.32;;
13847;SDS011;6994;49.752;6.094;2022-12-18T06:44:41;19.73;;;9.15;;
13847;SDS011;6994;49.752;6.094;2022-12-18T06:47:08;14.48;;;7.78;;
13847;SDS011;6994;49.752;6.094;2022-12-18T06:49:36;17.62;;;7.87;;
13847;SDS011;6994;49.752;6.094;2022-12-18T06:52:04;16.30;;;7.55;;
13847;SDS011;6994;49.752;6.094;2022-12-18T06:54:31;17.90;;;8.00;;
13847;SDS011;6994;49.752;6.094;2022-12-18T06:56:58;14.40;;;7.90;;
13847;SDS011;6994;49.752;6.094;2022-12-18T06:59:26;24.80;;;10.57;;
13847;SDS011;6994;49.752;6.094;2022-12-18T07:01:54;17.45;;;8.75;;
13847;SDS011;6994;49.752;6.094;2022-12-18T07:04:26;18.75;;;9.43;;
13847;SDS011;6994;49.752;6.094;2022-12-18T07:06:49;18.85;;;9.55;;
13847;SDS011;6994;49.752;6.094;2022-12-18T07:09:16;17.25;;;8.73;;
13847;SDS011;6994;49.752;6.094;2022-12-18T07:11:44;10.37;;;7.13;;
13847;SDS011;6994;49.752;6.094;2022-12-18T07:14:12;17.87;;;8.87;;
13847;SDS011;6994;49.752;6.094;2022-12-18T07:16:39;15.65;;;8.48;;
13847;SDS011;6994;49.752;6.094;2022-12-18T07:19:06;16.87;;;8.40;;
13847;SDS011;6994;49.752;6.094;2022-12-18T07:21:33;26.23;;;15.50;;
13847;SDS011;6994;49.752;6.094;2022-12-18T07:24:01;20.37;;;12.52;;
13847;SDS011;6994;49.752;6.094;2022-12-18T07:26:29;21.17;;;10.23;;
13847;SDS011;6994;49.752;6.094;2022-12-18T07:28:56;16.70;;;8.77;;
13847;SDS011;6994;49.752;6.094;2022-12-18T07:31:24;15.03;;;7.87;;
13847;SDS011;6994;49.752;6.094;2022-12-18T07:33:51;19.53;;;10.00;;
13847;SDS011;6994;49.752;6.094;2022-12-18T07:36:19;14.23;;;7.18;;
13847;SDS011;6994;49.752;6.094;2022-12-18T07:38:49;22.73;;;8.70;;
13847;SDS011;6994;49.752;6.094;2022-12-18T07:41:17;25.83;;;14.63;;
13847;SDS011;6994;49.752;6.094;2022-12-18T07:43:45;27.08;;;14.77;;
13847;SDS011;6994;49.752;6.094;2022-12-18T07:46:12;26.58;;;14.27;;
13847;SDS011;6994;49.752;6.094;2022-12-18T07:48:42;19.55;;;11.35;;
13847;SDS011;6994;49.752;6.094;2022-12-18T07:51:12;20.48;;;10.88;;
13847;SDS011;6994;49.752;6.094;2022-12-18T07:53:39;18.42;;;9.65;;
13847;SDS011;6994;49.752;6.094;2022-12-18T07:56:08;24.00;;;10.35;;
13847;SDS011;6994;49.752;6.094;2022-12-18T07:58:33;30.20;;;17.40;;
13847;SDS011;6994;49.752;6.094;2022-12-18T08:01:07;23.75;;;13.85;;
13847;SDS011;6994;49.752;6.094;2022-12-18T08:03:34;25.00;;;13.88;;
13847;SDS011;6994;49.752;6.094;2022-12-18T08:06:01;26.67;;;15.57;;
13847;SDS011;6994;49.752;6.094;2022-12-18T08:08:29;21.92;;;12.10;;
13847;SDS011;6994;49.752;6.094;2022-12-18T08:10:57;20.85;;;10.15;;
13847;SDS011;6994;49.752;6.094;2022-12-18T08:13:25;18.83;;;10.30;;
13847;SDS011;6994;49.752;6.094;2022-12-18T08:15:56;18.55;;;10.70;;
13847;SDS011;6994;49.752;6.094;2022-12-18T08:18:26;17.20;;;9.27;;
13847;SDS011;6994;49.752;6.094;2022-12-18T08:20:54;19.52;;;8.23;;
13847;SDS011;6994;49.752;6.094;2022-12-18T08:23:22;21.97;;;8.93;;
13847;SDS011;6994;49.752;6.094;2022-12-18T08:25:49;18.50;;;8.32;;
13847;SDS011;6994;49.752;6.094;2022-12-18T08:28:17;20.20;;;9.02;;
13847;SDS011;6994;49.752;6.094;2022-12-18T08:30:44;18.67;;;8.75;;
13847;SDS011;6994;49.752;6.094;2022-12-18T08:33:11;22.17;;;8.48;;
13847;SDS011;6994;49.752;6.094;2022-12-18T08:35:38;18.25;;;9.02;;
13847;SDS011;6994;49.752;6.094;2022-12-18T08:38:06;15.85;;;8.65;;
13847;SDS011;6994;49.752;6.094;2022-12-18T08:40:33;19.75;;;10.38;;
13847;SDS011;6994;49.752;6.094;2022-12-18T08:43:01;22.65;;;10.98;;
13847;SDS011;6994;49.752;6.094;2022-12-18T08:45:47;17.55;;;9.48;;
13847;SDS011;6994;49.752;6.094;2022-12-18T08:48:14;18.60;;;8.68;;
13847;SDS011;6994;49.752;6.094;2022-12-18T08:50:42;14.45;;;9.55;;
13847;SDS011;6994;49.752;6.094;2022-12-18T08:53:10;17.35;;;8.75;;
13847;SDS011;6994;49.752;6.094;2022-12-18T08:55:38;18.83;;;10.40;;
13847;SDS011;6994;49.752;6.094;2022-12-18T08:58:05;17.33;;;9.20;;
13847;SDS011;6994;49.752;6.094;2022-12-18T09:00:33;21.65;;;11.30;;
13847;SDS011;6994;49.752;6.094;2022-12-18T09:03:00;26.87;;;16.37;;
13847;SDS011;6994;49.752;6.094;2022-12-18T09:05:28;20.30;;;14.10;;
13847;SDS011;6994;49.752;6.094;2022-12-18T09:07:56;22.15;;;12.32;;
13847;SDS011;6994;49.752;6.094;2022-12-18T09:10:24;26.33;;;12.60;;
13847;SDS011;6994;49.752;6.094;2022-12-18T09:12:51;21.17;;;12.15;;
13847;SDS011;6994;49.752;6.094;2022-12-18T09:15:18;28.90;;;14.63;;
13847;SDS011;6994;49.752;6.094;2022-12-18T09:17:45;34.60;;;20.83;;
13847;SDS011;6994;49.752;6.094;2022-12-18T09:20:13;29.73;;;15.82;;
13847;SDS011;6994;49.752;6.094;2022-12-18T09:22:41;26.45;;;14.27;;
13847;SDS011;6994;49.752;6.094;2022-12-18T09:25:09;28.62;;;13.55;;
13847;SDS011;6994;49.752;6.094;2022-12-18T09:27:36;23.92;;;13.00;;
13847;SDS011;6994;49.752;6.094;2022-12-18T09:30:04;24.08;;;14.82;;
13847;SDS011;6994;49.752;6.094;2022-12-18T09:32:31;31.77;;;19.85;;
13847;SDS011;6994;49.752;6.094;2022-12-18T09:34:58;25.40;;;15.73;;
13847;SDS011;6994;49.752;6.094;2022-12-18T09:37:25;32.72;;;17.70;;
13847;SDS011;6994;49.752;6.094;2022-12-18T09:39:53;27.37;;;15.30;;
13847;SDS011;6994;49.752;6.094;2022-12-18T09:42:21;28.83;;;14.48;;
13847;SDS011;6994;49.752;6.094;2022-12-18T09:44:52;26.23;;;14.40;;
13847;SDS011;6994;49.752;6.094;2022-12-18T09:47:19;29.60;;;19.00;;
13847;SDS011;6994;49.752;6.094;2022-12-18T09:49:46;23.40;;;14.27;;
13847;SDS011;6994;49.752;6.094;2022-12-18T09:52:33;22.60;;;15.25;;
13847;SDS011;6994;49.752;6.094;2022-12-18T09:55:00;22.08;;;13.07;;
13847;SDS011;6994;49.752;6.094;2022-12-18T09:57:29;22.05;;;12.63;;
13847;SDS011;6994;49.752;6.094;2022-12-18T10:00:03;19.83;;;13.50;;
13847;SDS011;6994;49.752;6.094;2022-12-18T10:02:30;20.42;;;13.32;;
13847;SDS011;6994;49.752;6.094;2022-12-18T10:05:02;21.62;;;13.50;;
13847;SDS011;6994;49.752;6.094;2022-12-18T10:07:42;24.45;;;13.77;;
13847;SDS011;6994;49.752;6.094;2022-12-18T10:18:44;27.90;;;15.95;;
13847;SDS011;6994;49.752;6.094;2022-12-18T10:21:04;23.90;;;14.50;;
13847;SDS011;6994;49.752;6.094;2022-12-18T10:23:37;23.62;;;14.63;;
13847;SDS011;6994;49.752;6.094;2022-12-18T10:26:07;19.90;;;12.60;;
13847;SDS011;6994;49.752;6.094;2022-12-18T10:28:37;28.25;;;14.43;;
13847;SDS011;6994;49.752;6.094;2022-12-18T10:31:07;20.45;;;13.15;;
13847;SDS011;6994;49.752;6.094;2022-12-18T10:33:34;21.77;;;13.50;;
13847;SDS011;6994;49.752;6.094;2022-12-18T10:36:01;23.12;;;13.43;;
13847;SDS011;6994;49.752;6.094;2022-12-18T10:38:29;20.60;;;12.70;;
13847;SDS011;6994;49.752;6.094;2022-12-18T10:41:03;23.15;;;13.50;;
13847;SDS011;6994;49.752;6.094;2022-12-18T10:43:31;55.40;;;27.37;;
13847;SDS011;6994;49.752;6.094;2022-12-18T10:53:57;22.55;;;13.48;;
13847;SDS011;6994;49.752;6.094;2022-12-18T10:56:27;26.52;;;15.13;;
13847;SDS011;6994;49.752;6.094;2022-12-18T10:58:58;22.45;;;14.70;;
13847;SDS011;6994;49.752;6.094;2022-12-18T11:01:24;22.77;;;13.52;;
13847;SDS011;6994;49.752;6.094;2022-12-18T11:06:22;28.40;;;15.25;;
13847;SDS011;6994;49.752;6.094;2022-12-18T11:08:59;26.77;;;15.80;;
13847;SDS011;6994;49.752;6.094;2022-12-18T11:11:32;26.02;;;15.50;;
13847;SDS011;6994;49.752;6.094;2022-12-18T11:14:02;22.75;;;14.52;;
13847;SDS011;6994;49.752;6.094;2022-12-18T11:16:31;23.83;;;14.77;;
13847;SDS011;6994;49.752;6.094;2022-12-18T11:21:49;22.23;;;14.07;;
13847;SDS011;6994;49.752;6.094;2022-12-18T11:24:20;21.67;;;13.40;;
13847;SDS011;6994;49.752;6.094;2022-12-18T11:26:58;21.35;;;13.57;;
13847;SDS011;6994;49.752;6.094;2022-12-18T11:29:33;24.98;;;14.18;;
13847;SDS011;6994;49.752;6.094;2022-12-18T11:34:52;22.75;;;13.98;;
13847;SDS011;6994;49.752;6.094;2022-12-18T11:37:19;20.37;;;13.77;;
13847;SDS011;6994;49.752;6.094;2022-12-18T11:39:50;21.83;;;13.73;;
13847;SDS011;6994;49.752;6.094;2022-12-18T11:42:21;23.33;;;14.25;;
13847;SDS011;6994;49.752;6.094;2022-12-18T11:44:48;21.30;;;13.50;;
13847;SDS011;6994;49.752;6.094;2022-12-18T11:50:13;21.05;;;15.10;;
13847;SDS011;6994;49.752;6.094;2022-12-18T11:52:43;23.62;;;14.07;;
13847;SDS011;6994;49.752;6.094;2022-12-18T11:55:11;22.13;;;13.85;;
13847;SDS011;6994;49.752;6.094;2022-12-18T11:57:40;20.15;;;13.00;;
13847;SDS011;6994;49.752;6.094;2022-12-18T12:00:10;23.70;;;14.68;;
13847;SDS011;6994;49.752;6.094;2022-12-18T12:10:05;25.02;;;18.83;;
13847;SDS011;6994;49.752;6.094;2022-12-18T12:15:23;24.87;;;16.58;;
13847;SDS011;6994;49.752;6.094;2022-12-18T12:26:41;22.50;;;14.05;;
13847;SDS011;6994;49.752;6.094;2022-12-18T12:37:38;21.35;;;13.02;;
13847;SDS011;6994;49.752;6.094;2022-12-18T12:40:23;21.55;;;13.77;;
13847;SDS011;6994;49.752;6.094;2022-12-18T12:42:44;20.70;;;14.23;;
13847;SDS011;6994;49.752;6.094;2022-12-18T12:45:28;20.50;;;13.50;;
13847;SDS011;6994;49.752;6.094;2022-12-18T12:47:53;21.23;;;13.23;;
13847;SDS011;6994;49.752;6.094;2022-12-18T12:50:20;25.10;;;17.50;;
13847;SDS011;6994;49.752;6.094;2022-12-18T12:52:51;22.87;;;14.65;;
13847;SDS011;6994;49.752;6.094;2022-12-18T12:55:19;23.80;;;14.75;;
13847;SDS011;6994;49.752;6.094;2022-12-18T12:58:02;23.05;;;15.18;;
13847;SDS011;6994;49.752;6.094;2022-12-18T13:00:31;23.92;;;14.55;;
13847;SDS011;6994;49.752;6.094;2022-12-18T13:02:59;19.75;;;13.35;;
13847;SDS011;6994;49.752;6.094;2022-12-18T13:05:54;23.15;;;14.13;;
13847;SDS011;6994;49.752;6.094;2022-12-18T13:08:30;21.17;;;14.90;;
13847;SDS011;6994;49.752;6.094;2022-12-18T13:10:57;22.10;;;13.18;;
13847;SDS011;6994;49.752;6.094;2022-12-18T13:13:53;20.67;;;13.90;;
13847;SDS011;6994;49.752;6.094;2022-12-18T13:16:23;24.00;;;15.75;;
13847;SDS011;6994;49.752;6.094;2022-12-18T13:18:52;23.73;;;15.13;;
13847;SDS011;6994;49.752;6.094;2022-12-18T13:21:20;22.48;;;14.95;;
13847;SDS011;6994;49.752;6.094;2022-12-18T13:23:48;27.30;;;14.73;;
13847;SDS011;6994;49.752;6.094;2022-12-18T13:31:57;26.87;;;16.95;;
13847;SDS011;6994;49.752;6.094;2022-12-18T13:36:43;28.48;;;21.10;;
13847;SDS011;6994;49.752;6.094;2022-12-18T13:39:11;29.42;;;17.45;;
13847;SDS011;6994;49.752;6.094;2022-12-18T13:41:38;32.30;;;22.00;;
13847;SDS011;6994;49.752;6.094;2022-12-18T13:44:24;26.42;;;17.85;;
13847;SDS011;6994;49.752;6.094;2022-12-18T13:47:00;28.55;;;18.67;;
13847;SDS011;6994;49.752;6.094;2022-12-18T13:49:35;28.20;;;16.98;;
13847;SDS011;6994;49.752;6.094;2022-12-18T13:52:20;29.87;;;17.50;;
13847;SDS011;6994;49.752;6.094;2022-12-18T13:54:42;24.12;;;15.23;;
13847;SDS011;6994;49.752;6.094;2022-12-18T13:59:55;28.55;;;17.12;;
13847;SDS011;6994;49.752;6.094;2022-12-18T14:02:26;26.75;;;17.95;;
13847;SDS011;6994;49.752;6.094;2022-12-18T14:04:55;32.08;;;22.37;;
13847;SDS011;6994;49.752;6.094;2022-12-18T14:07:25;32.88;;;23.42;;
13847;SDS011;6994;49.752;6.094;2022-12-18T14:09:52;31.37;;;20.35;;
13847;SDS011;6994;49.752;6.094;2022-12-18T14:12:26;32.35;;;19.12;;
13847;SDS011;6994;49.752;6.094;2022-12-18T14:15:20;35.28;;;19.48;;
13847;SDS011;6994;49.752;6.094;2022-12-18T14:17:37;32.00;;;18.85;;
13847;SDS011;6994;49.752;6.094;2022-12-18T14:20:05;32.78;;;17.70;;
13847;SDS011;6994;49.752;6.094;2022-12-18T14:22:33;27.62;;;16.70;;
13847;SDS011;6994;49.752;6.094;2022-12-18T14:28:22;32.83;;;18.30;;
13847;SDS011;6994;49.752;6.094;2022-12-18T14:33:04;30.12;;;16.75;;
13847;SDS011;6994;49.752;6.094;2022-12-18T14:35:32;27.95;;;17.55;;
13847;SDS011;6994;49.752;6.094;2022-12-18T14:38:16;30.17;;;17.98;;
13847;SDS011;6994;49.752;6.094;2022-12-18T14:41:00;33.10;;;18.02;;
13847;SDS011;6994;49.752;6.094;2022-12-18T14:43:31;29.80;;;18.37;;
13847;SDS011;6994;49.752;6.094;2022-12-18T14:45:56;32.00;;;18.30;;
13847;SDS011;6994;49.752;6.094;2022-12-18T14:48:37;30.30;;;17.25;;
13847;SDS011;6994;49.752;6.094;2022-12-18T14:51:07;36.30;;;24.27;;
13847;SDS011;6994;49.752;6.094;2022-12-18T14:53:34;33.05;;;20.33;;
13847;SDS011;6994;49.752;6.094;2022-12-18T14:56:03;36.50;;;19.60;;
13847;SDS011;6994;49.752;6.094;2022-12-18T14:58:30;33.15;;;20.10;;
13847;SDS011;6994;49.752;6.094;2022-12-18T15:00:57;31.58;;;17.90;;
13847;SDS011;6994;49.752;6.094;2022-12-18T15:03:24;31.00;;;19.23;;
13847;SDS011;6994;49.752;6.094;2022-12-18T15:05:51;29.35;;;18.83;;
13847;SDS011;6994;49.752;6.094;2022-12-18T15:08:34;32.00;;;18.83;;
13847;SDS011;6994;49.752;6.094;2022-12-18T15:10:58;35.67;;;18.12;;
13847;SDS011;6994;49.752;6.094;2022-12-18T15:13:25;34.37;;;24.70;;
13847;SDS011;6994;49.752;6.094;2022-12-18T15:15:52;34.03;;;21.02;;
13847;SDS011;6994;49.752;6.094;2022-12-18T15:18:33;33.38;;;19.50;;
13847;SDS011;6994;49.752;6.094;2022-12-18T15:20:59;34.78;;;18.95;;
13847;SDS011;6994;49.752;6.094;2022-12-18T15:26:04;30.90;;;18.42;;
13847;SDS011;6994;49.752;6.094;2022-12-18T15:28:34;32.92;;;19.27;;
13847;SDS011;6994;49.752;6.094;2022-12-18T15:31:17;37.47;;;25.30;;
13847;SDS011;6994;49.752;6.094;2022-12-18T15:33:36;36.42;;;21.95;;
13847;SDS011;6994;49.752;6.094;2022-12-18T15:36:04;32.70;;;19.40;;
13847;SDS011;6994;49.752;6.094;2022-12-18T15:38:30;36.80;;;25.73;;
13847;SDS011;6994;49.752;6.094;2022-12-18T15:40:57;35.90;;;22.02;;
13847;SDS011;6994;49.752;6.094;2022-12-18T15:43:24;37.35;;;21.75;;
13847;SDS011;6994;49.752;6.094;2022-12-18T15:46:17;38.40;;;26.83;;
13847;SDS011;6994;49.752;6.094;2022-12-18T15:48:47;40.38;;;28.80;;
13847;SDS011;6994;49.752;6.094;2022-12-18T15:51:15;37.47;;;27.50;;
13847;SDS011;6994;49.752;6.094;2022-12-18T15:53:43;40.47;;;28.40;;
13847;SDS011;6994;49.752;6.094;2022-12-18T15:56:12;36.35;;;22.27;;
13847;SDS011;6994;49.752;6.094;2022-12-18T15:58:57;35.55;;;20.25;;
13847;SDS011;6994;49.752;6.094;2022-12-18T16:01:25;39.42;;;21.40;;
13847;SDS011;6994;49.752;6.094;2022-12-18T16:03:51;33.83;;;21.08;;
13847;SDS011;6994;49.752;6.094;2022-12-18T16:06:19;36.13;;;19.77;;
13847;SDS011;6994;49.752;6.094;2022-12-18T16:08:46;36.88;;;22.55;;
13847;SDS011;6994;49.752;6.094;2022-12-18T16:11:21;36.05;;;21.60;;